sensor_id;sensor_type;location;lat;lon;timestamp;temperature;humidity
73833;SHT30;62179;48.444;-4.464;2023-01-15T00:01:32;8.76;71.84
73833;SHT30;62179;48.444;-4.464;2023-01-15T00:03:59;8.78;72.35
73833;SHT30;62179;48.444;-4.464;2023-01-15T00:06:27;8.77;72.85
73833;SHT30;62179;48.444;-4.464;2023-01-15T00:08:53;8.81;73.10
73833;SHT30;62179;48.444;-4.464;2023-01-15T00:11:19;8.76;73.86
73833;SHT30;62179;48.444;-4.464;2023-01-15T00:13:45;8.74;72.46
73833;SHT30;62179;48.444;-4.464;2023-01-15T00:16:18;8.71;72.24
73833;SHT30;62179;48.444;-4.464;2023-01-15T00:18:55;8.68;73.06
73833;SHT30;62179;48.444;-4.464;2023-01-15T00:21:21;8.70;73.43
73833;SHT30;62179;48.444;-4.464;2023-01-15T00:23:47;8.67;72.78
73833;SHT30;62179;48.444;-4.464;2023-01-15T00:26:33;8.64;74.73
73833;SHT30;62179;48.444;-4.464;2023-01-15T00:29:17;8.60;75.45
73833;SHT30;62179;48.444;-4.464;2023-01-15T00:31:51;8.53;75.24
73833;SHT30;62179;48.444;-4.464;2023-01-15T00:34:17;8.49;75.85
73833;SHT30;62179;48.444;-4.464;2023-01-15T00:36:42;8.46;75.30
73833;SHT30;62179;48.444;-4.464;2023-01-15T00:39:08;8.43;75.98
73833;SHT30;62179;48.444;-4.464;2023-01-15T00:41:33;8.40;76.03
73833;SHT30;62179;48.444;-4.464;2023-01-15T00:43:59;8.42;75.99
73833;SHT30;62179;48.444;-4.464;2023-01-15T00:46:24;8.37;75.83
73833;SHT30;62179;48.444;-4.464;2023-01-15T00:48:50;8.37;76.62
73833;SHT30;62179;48.444;-4.464;2023-01-15T00:51:15;8.40;77.38
73833;SHT30;62179;48.444;-4.464;2023-01-15T00:53:41;8.40;76.11
73833;SHT30;62179;48.444;-4.464;2023-01-15T00:56:06;8.37;76.40
73833;SHT30;62179;48.444;-4.464;2023-01-15T00:58:32;8.37;76.46
73833;SHT30;62179;48.444;-4.464;2023-01-15T01:00:58;8.37;76.58
73833;SHT30;62179;48.444;-4.464;2023-01-15T01:03:25;8.33;76.34
73833;SHT30;62179;48.444;-4.464;2023-01-15T01:05:50;8.35;75.70
73833;SHT30;62179;48.444;-4.464;2023-01-15T01:08:16;8.32;75.02
73833;SHT30;62179;48.444;-4.464;2023-01-15T01:10:42;8.35;74.86
73833;SHT30;62179;48.444;-4.464;2023-01-15T01:13:07;8.33;73.82
73833;SHT30;62179;48.444;-4.464;2023-01-15T01:15:34;8.33;72.60
73833;SHT30;62179;48.444;-4.464;2023-01-15T01:18:00;8.36;73.01
73833;SHT30;62179;48.444;-4.464;2023-01-15T01:20:25;8.37;73.42
73833;SHT30;62179;48.444;-4.464;2023-01-15T01:22:51;8.35;72.06
73833;SHT30;62179;48.444;-4.464;2023-01-15T01:25:17;8.36;72.30
73833;SHT30;62179;48.444;-4.464;2023-01-15T01:27:45;8.39;71.32
73833;SHT30;62179;48.444;-4.464;2023-01-15T01:30:12;8.43;71.61
73833;SHT30;62179;48.444;-4.464;2023-01-15T01:32:37;8.45;71.64
73833;SHT30;62179;48.444;-4.464;2023-01-15T01:35:04;8.46;72.54
73833;SHT30;62179;48.444;-4.464;2023-01-15T01:37:29;8.43;71.56
73833;SHT30;62179;48.444;-4.464;2023-01-15T01:39:55;8.37;72.85
73833;SHT30;62179;48.444;-4.464;2023-01-15T01:42:21;8.37;73.17
73833;SHT30;62179;48.444;-4.464;2023-01-15T01:47:15;8.28;73.21
73833;SHT30;62179;48.444;-4.464;2023-01-15T01:49:44;8.24;73.47
73833;SHT30;62179;48.444;-4.464;2023-01-15T01:52:15;8.19;74.12
73833;SHT30;62179;48.444;-4.464;2023-01-15T01:54:44;8.17;74.74
73833;SHT30;62179;48.444;-4.464;2023-01-15T01:57:10;8.13;72.67
73833;SHT30;62179;48.444;-4.464;2023-01-15T01:59:37;8.06;72.64
73833;SHT30;62179;48.444;-4.464;2023-01-15T02:02:02;7.98;71.94
73833;SHT30;62179;48.444;-4.464;2023-01-15T02:04:29;7.94;72.48
73833;SHT30;62179;48.444;-4.464;2023-01-15T02:06:57;7.89;70.44
73833;SHT30;62179;48.444;-4.464;2023-01-15T02:09:23;7.82;69.98
73833;SHT30;62179;48.444;-4.464;2023-01-15T02:11:50;7.74;69.83
73833;SHT30;62179;48.444;-4.464;2023-01-15T02:14:41;7.67;71.48
73833;SHT30;62179;48.444;-4.464;2023-01-15T02:17:29;7.63;72.65
73833;SHT30;62179;48.444;-4.464;2023-01-15T02:20:18;7.61;72.19
73833;SHT30;62179;48.444;-4.464;2023-01-15T02:28:18;7.63;73.37
73833;SHT30;62179;48.444;-4.464;2023-01-15T02:30:48;7.58;73.26
73833;SHT30;62179;48.444;-4.464;2023-01-15T02:33:32;7.63;72.50
73833;SHT30;62179;48.444;-4.464;2023-01-15T02:35:59;7.64;72.42
73833;SHT30;62179;48.444;-4.464;2023-01-15T02:38:28;7.66;72.83
73833;SHT30;62179;48.444;-4.464;2023-01-15T02:40:58;7.68;72.27
73833;SHT30;62179;48.444;-4.464;2023-01-15T02:43:26;7.71;73.20
73833;SHT30;62179;48.444;-4.464;2023-01-15T02:45:56;7.73;72.96
73833;SHT30;62179;48.444;-4.464;2023-01-15T02:48:26;7.77;73.51
73833;SHT30;62179;48.444;-4.464;2023-01-15T02:51:02;7.75;73.82
73833;SHT30;62179;48.444;-4.464;2023-01-15T02:53:32;7.81;73.73
73833;SHT30;62179;48.444;-4.464;2023-01-15T02:56:03;7.84;74.18
73833;SHT30;62179;48.444;-4.464;2023-01-15T02:58:35;7.87;73.50
73833;SHT30;62179;48.444;-4.464;2023-01-15T03:01:10;7.91;73.35
73833;SHT30;62179;48.444;-4.464;2023-01-15T03:06:26;7.96;72.49
73833;SHT30;62179;48.444;-4.464;2023-01-15T03:08:58;7.98;72.24
73833;SHT30;62179;48.444;-4.464;2023-01-15T03:11:24;8.02;71.63
73833;SHT30;62179;48.444;-4.464;2023-01-15T03:16:38;8.13;72.47
73833;SHT30;62179;48.444;-4.464;2023-01-15T03:19:26;8.19;72.02
73833;SHT30;62179;48.444;-4.464;2023-01-15T03:21:57;8.21;72.42
73833;SHT30;62179;48.444;-4.464;2023-01-15T03:24:28;8.25;72.69
73833;SHT30;62179;48.444;-4.464;2023-01-15T03:26:56;8.28;72.32
73833;SHT30;62179;48.444;-4.464;2023-01-15T03:29:24;8.29;72.32
73833;SHT30;62179;48.444;-4.464;2023-01-15T03:31:51;8.32;72.09
73833;SHT30;62179;48.444;-4.464;2023-01-15T03:34:17;8.33;72.16
73833;SHT30;62179;48.444;-4.464;2023-01-15T03:36:42;8.30;71.49
73833;SHT30;62179;48.444;-4.464;2023-01-15T03:39:08;8.35;71.28
73833;SHT30;62179;48.444;-4.464;2023-01-15T03:49:58;8.49;71.28
73833;SHT30;62179;48.444;-4.464;2023-01-15T03:52:33;8.50;71.28
73833;SHT30;62179;48.444;-4.464;2023-01-15T03:55:14;8.54;71.60
73833;SHT30;62179;48.444;-4.464;2023-01-15T03:57:48;8.64;72.26
73833;SHT30;62179;48.444;-4.464;2023-01-15T04:02:44;8.66;71.83
73833;SHT30;62179;48.444;-4.464;2023-01-15T04:05:11;8.73;72.40
73833;SHT30;62179;48.444;-4.464;2023-01-15T04:07:38;8.76;72.31
73833;SHT30;62179;48.444;-4.464;2023-01-15T04:10:07;8.76;72.72
73833;SHT30;62179;48.444;-4.464;2023-01-15T04:12:32;8.80;72.05
73833;SHT30;62179;48.444;-4.464;2023-01-15T04:14:58;8.78;70.68
73833;SHT30;62179;48.444;-4.464;2023-01-15T04:17:24;8.80;70.52
73833;SHT30;62179;48.444;-4.464;2023-01-15T04:19:49;8.81;70.07
73833;SHT30;62179;48.444;-4.464;2023-01-15T04:22:15;8.80;69.37
73833;SHT30;62179;48.444;-4.464;2023-01-15T04:24:41;8.88;70.48
73833;SHT30;62179;48.444;-4.464;2023-01-15T04:27:07;8.85;70.39
73833;SHT30;62179;48.444;-4.464;2023-01-15T04:29:32;8.85;70.42
73833;SHT30;62179;48.444;-4.464;2023-01-15T04:31:58;8.87;70.71
73833;SHT30;62179;48.444;-4.464;2023-01-15T04:34:27;8.87;70.52
73833;SHT30;62179;48.444;-4.464;2023-01-15T04:36:54;8.85;69.88
73833;SHT30;62179;48.444;-4.464;2023-01-15T04:39:20;8.83;70.07
73833;SHT30;62179;48.444;-4.464;2023-01-15T04:41:45;8.81;69.59
73833;SHT30;62179;48.444;-4.464;2023-01-15T04:44:32;8.80;69.22
73833;SHT30;62179;48.444;-4.464;2023-01-15T04:46:57;8.81;68.56
73833;SHT30;62179;48.444;-4.464;2023-01-15T04:49:24;8.83;68.35
73833;SHT30;62179;48.444;-4.464;2023-01-15T04:51:50;8.84;69.94
73833;SHT30;62179;48.444;-4.464;2023-01-15T04:54:15;8.87;69.51
73833;SHT30;62179;48.444;-4.464;2023-01-15T04:56:45;8.85;69.70
73833;SHT30;62179;48.444;-4.464;2023-01-15T04:59:15;8.83;69.55
73833;SHT30;62179;48.444;-4.464;2023-01-15T05:01:40;8.81;68.53
73833;SHT30;62179;48.444;-4.464;2023-01-15T05:04:06;8.78;69.39
73833;SHT30;62179;48.444;-4.464;2023-01-15T19:19:28;9.84;83.99
73833;SHT30;62179;48.444;-4.464;2023-01-15T19:21:54;9.82;84.08
73833;SHT30;62179;48.444;-4.464;2023-01-15T19:24:46;9.84;84.21
73833;SHT30;62179;48.444;-4.464;2023-01-15T19:27:11;9.84;84.78
73833;SHT30;62179;48.444;-4.464;2023-01-15T19:29:37;9.87;85.04
73833;SHT30;62179;48.444;-4.464;2023-01-15T19:32:03;9.86;85.11
73833;SHT30;62179;48.444;-4.464;2023-01-15T19:34:30;9.89;85.28
73833;SHT30;62179;48.444;-4.464;2023-01-15T19:36:56;9.87;85.48
73833;SHT30;62179;48.444;-4.464;2023-01-15T19:39:25;9.86;85.40
73833;SHT30;62179;48.444;-4.464;2023-01-15T19:41:52;9.86;86.31
73833;SHT30;62179;48.444;-4.464;2023-01-15T19:44:36;9.90;86.97
73833;SHT30;62179;48.444;-4.464;2023-01-15T19:47:37;9.86;86.71
73833;SHT30;62179;48.444;-4.464;2023-01-15T19:50:31;9.84;89.21
73833;SHT30;62179;48.444;-4.464;2023-01-15T19:52:57;9.80;86.92
73833;SHT30;62179;48.444;-4.464;2023-01-15T19:55:23;9.83;87.29
73833;SHT30;62179;48.444;-4.464;2023-01-15T19:58:00;9.79;87.28
73833;SHT30;62179;48.444;-4.464;2023-01-15T20:00:28;9.77;86.92
73833;SHT30;62179;48.444;-4.464;2023-01-15T20:02:54;9.77;86.96
73833;SHT30;62179;48.444;-4.464;2023-01-15T20:05:21;9.79;86.92
73833;SHT30;62179;48.444;-4.464;2023-01-15T20:07:46;9.79;86.68
73833;SHT30;62179;48.444;-4.464;2023-01-15T20:10:15;9.80;86.24
73833;SHT30;62179;48.444;-4.464;2023-01-15T20:12:41;9.79;86.14
73833;SHT30;62179;48.444;-4.464;2023-01-15T20:15:27;9.79;87.09
73833;SHT30;62179;48.444;-4.464;2023-01-15T20:17:53;9.77;86.67
73833;SHT30;62179;48.444;-4.464;2023-01-15T20:20:19;9.80;86.85
73833;SHT30;62179;48.444;-4.464;2023-01-15T20:22:45;9.80;85.81
73833;SHT30;62179;48.444;-4.464;2023-01-15T20:25:11;9.82;86.55
73833;SHT30;62179;48.444;-4.464;2023-01-15T20:27:37;9.83;86.79
73833;SHT30;62179;48.444;-4.464;2023-01-15T20:30:14;9.86;86.58
73833;SHT30;62179;48.444;-4.464;2023-01-15T20:32:42;9.89;86.56
73833;SHT30;62179;48.444;-4.464;2023-01-15T20:35:29;9.94;85.77
73833;SHT30;62179;48.444;-4.464;2023-01-15T20:37:57;9.97;85.29
73833;SHT30;62179;48.444;-4.464;2023-01-15T20:40:24;9.98;84.61
73833;SHT30;62179;48.444;-4.464;2023-01-15T20:42:50;9.98;84.47
73833;SHT30;62179;48.444;-4.464;2023-01-15T20:45:34;9.97;83.82
73833;SHT30;62179;48.444;-4.464;2023-01-15T20:48:00;9.98;83.94
73833;SHT30;62179;48.444;-4.464;2023-01-15T20:50:43;9.98;84.15
73833;SHT30;62179;48.444;-4.464;2023-01-15T20:53:32;10.01;84.18
73833;SHT30;62179;48.444;-4.464;2023-01-15T20:56:02;10.00;84.16
73833;SHT30;62179;48.444;-4.464;2023-01-15T20:58:28;10.01;83.97
73833;SHT30;62179;48.444;-4.464;2023-01-15T21:01:01;10.04;83.80
73833;SHT30;62179;48.444;-4.464;2023-01-15T21:03:26;10.04;83.63
73833;SHT30;62179;48.444;-4.464;2023-01-15T21:05:55;10.07;83.27
73833;SHT30;62179;48.444;-4.464;2023-01-15T21:08:20;10.11;83.07
73833;SHT30;62179;48.444;-4.464;2023-01-15T21:10:50;10.13;81.95
73833;SHT30;62179;48.444;-4.464;2023-01-15T21:13:16;10.14;81.40
73833;SHT30;62179;48.444;-4.464;2023-01-15T21:15:41;10.15;80.45
73833;SHT30;62179;48.444;-4.464;2023-01-15T21:18:07;10.14;79.39
73833;SHT30;62179;48.444;-4.464;2023-01-15T21:20:32;10.13;78.75
73833;SHT30;62179;48.444;-4.464;2023-01-15T21:22:58;10.10;78.25
73833;SHT30;62179;48.444;-4.464;2023-01-15T21:25:23;10.07;78.21
73833;SHT30;62179;48.444;-4.464;2023-01-15T21:27:49;10.05;78.13
73833;SHT30;62179;48.444;-4.464;2023-01-15T21:30:15;10.04;78.65
73833;SHT30;62179;48.444;-4.464;2023-01-15T21:32:40;10.04;78.91
73833;SHT30;62179;48.444;-4.464;2023-01-15T21:35:10;10.03;78.47
73833;SHT30;62179;48.444;-4.464;2023-01-15T21:37:36;10.00;79.24
73833;SHT30;62179;48.444;-4.464;2023-01-15T21:40:01;10.00;80.17
73833;SHT30;62179;48.444;-4.464;2023-01-15T21:42:27;9.98;80.48
73833;SHT30;62179;48.444;-4.464;2023-01-15T21:45:15;10.03;80.27
73833;SHT30;62179;48.444;-4.464;2023-01-15T21:47:40;10.01;79.76
73833;SHT30;62179;48.444;-4.464;2023-01-15T21:50:07;10.00;79.56
73833;SHT30;62179;48.444;-4.464;2023-01-15T21:52:32;10.01;78.43
73833;SHT30;62179;48.444;-4.464;2023-01-15T21:54:58;10.05;78.52
73833;SHT30;62179;48.444;-4.464;2023-01-15T21:57:23;10.04;77.69
73833;SHT30;62179;48.444;-4.464;2023-01-15T21:59:49;10.05;78.00
73833;SHT30;62179;48.444;-4.464;2023-01-15T22:02:15;10.01;77.54
73833;SHT30;62179;48.444;-4.464;2023-01-15T22:04:44;10.04;77.92
73833;SHT30;62179;48.444;-4.464;2023-01-15T22:07:10;10.05;78.18
73833;SHT30;62179;48.444;-4.464;2023-01-15T22:09:36;10.05;77.75
73833;SHT30;62179;48.444;-4.464;2023-01-15T22:12:01;10.05;77.58
73833;SHT30;62179;48.444;-4.464;2023-01-15T22:14:29;10.00;77.48
73833;SHT30;62179;48.444;-4.464;2023-01-15T22:16:57;9.98;77.45
73833;SHT30;62179;48.444;-4.464;2023-01-15T22:19:26;9.93;76.88
73833;SHT30;62179;48.444;-4.464;2023-01-15T22:21:54;9.89;77.43
73833;SHT30;62179;48.444;-4.464;2023-01-15T22:24:25;9.87;77.65
73833;SHT30;62179;48.444;-4.464;2023-01-15T22:26:50;9.89;77.80
73833;SHT30;62179;48.444;-4.464;2023-01-15T22:29:26;9.87;77.38
73833;SHT30;62179;48.444;-4.464;2023-01-15T22:31:57;9.89;77.04
73833;SHT30;62179;48.444;-4.464;2023-01-15T22:34:25;9.90;77.17
73833;SHT30;62179;48.444;-4.464;2023-01-15T22:36:52;9.89;77.52
73833;SHT30;62179;48.444;-4.464;2023-01-15T22:39:18;9.87;77.85
73833;SHT30;62179;48.444;-4.464;2023-01-15T22:41:44;9.83;76.35
73833;SHT30;62179;48.444;-4.464;2023-01-15T22:44:29;9.76;75.36
73833;SHT30;62179;48.444;-4.464;2023-01-15T22:46:57;9.70;74.73
73833;SHT30;62179;48.444;-4.464;2023-01-15T22:49:23;9.64;74.69
73833;SHT30;62179;48.444;-4.464;2023-01-15T22:51:50;9.60;74.44
73833;SHT30;62179;48.444;-4.464;2023-01-15T22:54:16;9.56;74.40
73833;SHT30;62179;48.444;-4.464;2023-01-15T22:56:42;9.53;73.75
73833;SHT30;62179;48.444;-4.464;2023-01-15T22:59:09;9.46;73.30
73833;SHT30;62179;48.444;-4.464;2023-01-15T23:01:35;9.39;72.88
73833;SHT30;62179;48.444;-4.464;2023-01-15T23:04:01;9.36;73.32
73833;SHT30;62179;48.444;-4.464;2023-01-15T23:06:27;9.36;73.95
73833;SHT30;62179;48.444;-4.464;2023-01-15T23:09:00;9.32;73.55
73833;SHT30;62179;48.444;-4.464;2023-01-15T23:11:27;9.35;72.62
73833;SHT30;62179;48.444;-4.464;2023-01-15T23:13:53;9.29;71.87
73833;SHT30;62179;48.444;-4.464;2023-01-15T23:16:19;9.26;71.93
73833;SHT30;62179;48.444;-4.464;2023-01-15T23:18:46;9.18;71.58
73833;SHT30;62179;48.444;-4.464;2023-01-15T23:21:15;9.14;70.89
